Altamont, Kansas
Current Conditions -  °F | °C
As of 6:52 AM on Thursday 18 Dec 2014 (Local Time) from KPPF Reporting Station
Overcast Overcast  
Wind Chill: 33°   Ceiling: 700
Heat Index: 33°   Visibility: 10mi
Dew Point: 32°   Wind: 3mph
Humidity: 96%   Direction: NA
Pressure: 30.19"   Gusts: NA
Location:  37.19°N, 95.3°W
Report Text: KPPF 181252Z AUTO VRB03KT 10SM OVC007 01/00 A3019 RMK AO2 CIG 004V010 SLP230 T00060000
Loading
Personal Weather Stations






























Interactive Weather Map New forecast layout! Learn more

10-Day Weather Forecast

Advertisements
Track Severe Weather on mobile